createdAt,value
2022-09-28T00:01:25.851Z,87.11
2022-09-28T00:06:24.179Z,88.17
2022-09-28T00:11:27.815Z,88.27
2022-09-28T00:16:33.585Z,88.56
2022-09-28T00:21:32.122Z,88.53
2022-09-28T00:26:32.599Z,87.46
2022-09-28T00:31:36.385Z,86.57
2022-09-28T00:36:33.582Z,86.17
2022-09-28T00:41:30.407Z,85.65
2022-09-28T00:46:30.995Z,85.73
2022-09-28T00:51:30.018Z,86.66
2022-09-28T00:56:31.403Z,85.74
2022-09-28T01:01:28.343Z,84.73
2022-09-28T01:06:30.747Z,83.79
2022-09-28T01:11:27.884Z,82.96
2022-09-28T01:16:35.226Z,82.83
2022-09-28T01:21:50.970Z,82.65
2022-09-28T01:26:55.841Z,82.77
2022-09-28T01:31:57.001Z,82.48
2022-09-28T01:36:59.302Z,83.01
2022-09-28T01:41:59.438Z,83.11
2022-09-28T01:47:02.980Z,81.58
2022-09-28T01:52:01.891Z,80.98
2022-09-28T01:57:02.871Z,80.41
2022-09-28T02:02:05.867Z,79.93
2022-09-28T02:07:07.915Z,78.89
2022-09-28T02:12:09.650Z,79.07
2022-09-28T02:17:07.931Z,77.94
2022-09-28T02:22:12.796Z,76.34
2022-09-28T02:27:13.056Z,76.04
2022-09-28T02:32:13.345Z,75.35
2022-09-28T02:37:11.433Z,74.91
2022-09-28T02:42:19.707Z,75.06
2022-09-28T02:47:22.436Z,75.06
2022-09-28T02:52:34.180Z,74.67
2022-09-28T02:57:36.896Z,74.15
2022-09-28T03:02:39.464Z,75.27
2022-09-28T03:07:39.494Z,76.10
2022-09-28T03:12:37.062Z,77.89
2022-09-28T03:17:36.574Z,78.59
2022-09-28T03:22:33.428Z,81.36
2022-09-28T03:28:04.477Z,81.53
2022-09-28T03:33:06.497Z,82.44
2022-09-28T03:38:06.385Z,82.44
2022-09-28T03:43:07.246Z,83.23
2022-09-28T03:48:04.343Z,83.99
2022-09-28T03:53:06.828Z,84.63
2022-09-28T03:58:03.553Z,86.42
2022-09-28T04:03:02.050Z,88.02
2022-09-28T04:07:58.749Z,87.84
2022-09-28T04:12:56.415Z,87.05
2022-09-28T04:17:53.313Z,86.23
2022-09-28T04:23:14.749Z,85.15
2022-09-28T04:28:31.987Z,83.66
2022-09-28T04:33:29.579Z,82.25
2022-09-28T04:38:48.413Z,80.43
2022-09-28T04:43:46.250Z,80.06
2022-09-28T04:48:45.188Z,78.83
2022-09-28T04:54:05.075Z,77.56
2022-09-28T04:59:13.541Z,77.91
2022-09-28T05:04:25.601Z,78.69
2022-09-28T05:09:41.401Z,80.44
2022-09-28T05:14:42.748Z,80.74
2022-09-28T05:19:40.476Z,81.51
2022-09-28T05:24:37.722Z,82.32
2022-09-28T05:29:37.787Z,82.47
2022-09-28T05:35:00.607Z,82.46
2022-09-28T05:40:33.621Z,82.46
2022-09-28T05:45:30.659Z,81.17
2022-09-28T05:50:43.313Z,81.28
2022-09-28T05:55:45.936Z,81.30
2022-09-28T06:00:43.629Z,80.31
2022-09-28T06:05:43.049Z,79.80
2022-09-28T06:10:40.364Z,82.24
2022-09-28T06:15:37.451Z,83.46
2022-09-28T06:20:35.021Z,83.10
2022-09-28T06:25:48.611Z,80.28
2022-09-28T06:30:47.765Z,80.00
2022-09-28T06:36:24.278Z,77.62
2022-09-28T06:42:49.215Z,77.82
2022-09-28T06:48:20.933Z,77.27
2022-09-28T07:00:30.782Z,71.52
2022-09-28T07:05:58.942Z,71.32
2022-09-28T07:11:23.245Z,69.31
2022-09-28T07:17:11.792Z,68.93
2022-09-28T07:34:05.914Z,65.75
2022-09-28T07:39:21.845Z,62.35
2022-09-28T07:44:21.694Z,61.99
2022-09-28T07:49:26.016Z,62.83
2022-09-28T07:54:51.676Z,61.87
2022-09-28T08:00:30.827Z,61.91
2022-09-28T08:05:36.510Z,60.73
2022-09-28T08:10:33.691Z,60.32
2022-09-28T08:16:25.138Z,59.24
2022-09-28T08:21:44.926Z,59.47
2022-09-28T08:26:43.017Z,59.16
2022-09-28T08:31:42.989Z,57.98
2022-09-28T08:37:02.540Z,58.02
2022-09-28T08:42:15.694Z,56.27
2022-09-28T08:47:52.384Z,56.24
2022-09-28T08:53:04.507Z,55.26
2022-09-28T08:58:35.954Z,53.53
2022-09-28T09:03:37.998Z,51.53
2022-09-28T09:09:00.462Z,52.39
2022-09-28T09:14:09.391Z,51.50
2022-09-28T09:19:12.868Z,49.12
2022-09-28T09:24:42.062Z,49.43
2022-09-28T09:29:58.454Z,48.17
2022-09-28T09:35:00.972Z,46.12
2022-09-28T09:40:32.940Z,46.63
2022-09-28T09:45:58.198Z,45.32
2022-09-28T09:51:14.917Z,46.13
2022-09-28T09:56:15.221Z,47.04
2022-09-28T10:01:40.076Z,46.15
2022-09-28T10:06:54.651Z,46.42
2022-09-28T10:11:54.436Z,44.44
2022-09-28T10:16:53.051Z,45.59
2022-09-28T10:22:17.335Z,46.30
2022-09-28T10:27:16.785Z,46.18
2022-09-28T10:32:25.922Z,46.00
2022-09-28T10:37:27.237Z,45.69
2022-09-28T10:42:40.484Z,45.39
2022-09-28T10:47:50.506Z,44.15
2022-09-28T10:52:53.217Z,40.92
2022-09-28T10:58:25.016Z,43.39
2022-09-28T11:03:25.021Z,42.88
2022-09-28T11:08:25.253Z,40.36
2022-09-28T11:13:23.370Z,42.59
2022-09-28T11:18:31.806Z,42.20
2022-09-28T11:23:33.789Z,40.49
2022-09-28T11:28:51.187Z,41.89
2022-09-28T11:34:06.373Z,41.70
2022-09-28T11:39:23.136Z,39.17
2022-09-28T11:44:37.197Z,40.82
2022-09-28T11:49:40.202Z,41.81
2022-09-28T11:54:40.540Z,39.17
2022-09-28T11:59:40.882Z,39.62
2022-09-28T12:04:41.561Z,40.17
2022-09-28T12:09:49.181Z,40.21
2022-09-28T12:14:51.428Z,39.85
2022-09-28T12:19:49.328Z,39.48
2022-09-28T12:24:51.008Z,38.60
2022-09-28T12:29:59.516Z,38.14
2022-09-28T12:34:56.771Z,38.63
2022-09-28T12:40:09.051Z,38.44
2022-09-28T12:45:21.096Z,38.57
2022-09-28T12:50:38.277Z,39.03
2022-09-28T12:55:49.477Z,38.61
2022-09-28T13:00:53.789Z,39.20
2022-09-28T13:06:11.227Z,39.20
2022-09-28T13:11:15.050Z,39.37
2022-09-28T13:16:20.831Z,39.56
2022-09-28T13:21:28.435Z,39.58
2022-09-28T13:26:28.697Z,39.72
2022-09-28T13:31:33.038Z,39.16
2022-09-28T13:36:47.193Z,39.46
2022-09-28T13:41:50.061Z,40.26
2022-09-28T13:46:52.451Z,39.93
2022-09-28T13:51:57.620Z,39.80
2022-09-28T13:57:03.033Z,39.93
2022-09-28T14:02:06.902Z,38.20
2022-09-28T14:07:10.023Z,38.53
2022-09-28T14:12:25.998Z,39.63
2022-09-28T14:17:49.698Z,40.32
2022-09-28T14:29:08.099Z,39.73
2022-09-28T14:34:24.023Z,39.47
2022-09-28T14:39:44.422Z,39.16
2022-09-28T14:45:05.017Z,39.08
2022-09-28T14:50:20.934Z,39.25
2022-09-28T14:55:20.120Z,39.18
2022-09-28T15:00:48.041Z,39.61
2022-09-28T15:06:12.511Z,39.99
2022-09-28T15:17:19.186Z,40.31
2022-09-28T15:22:44.827Z,40.73
2022-09-28T15:33:51.903Z,41.73
2022-09-28T15:38:53.239Z,41.48
2022-09-28T15:44:14.197Z,41.40
2022-09-28T15:49:24.333Z,41.45
2022-09-28T15:54:23.882Z,41.98
2022-09-28T15:59:25.825Z,42.09
2022-09-28T16:04:35.144Z,42.41
2022-09-28T16:09:38.837Z,42.78
2022-09-28T16:14:40.518Z,42.55
2022-09-28T16:19:43.265Z,42.38
2022-09-28T16:24:41.026Z,42.85
2022-09-28T16:29:40.472Z,43.16
2022-09-28T16:34:37.401Z,43.03
2022-09-28T16:39:42.432Z,42.74
2022-09-28T16:44:39.950Z,42.71
2022-09-28T16:49:39.343Z,42.81
2022-09-28T16:54:54.184Z,43.07
2022-09-28T16:59:52.682Z,43.34
2022-09-28T17:04:49.601Z,45.11
2022-09-28T17:09:46.252Z,44.99
2022-09-28T17:14:44.159Z,45.91
2022-09-28T17:19:41.710Z,46.53
2022-09-28T17:36:32.299Z,47.31
2022-09-28T17:42:31.574Z,47.19
2022-09-28T17:47:34.273Z,47.17
2022-09-28T17:52:35.213Z,46.22
2022-09-28T17:57:39.139Z,46.19
2022-09-28T18:02:37.394Z,46.63
2022-09-28T18:07:34.939Z,46.47
2022-09-28T18:12:48.863Z,46.23
2022-09-28T18:17:45.685Z,46.55
2022-09-28T18:22:43.196Z,45.88
2022-09-28T18:27:40.018Z,46.20
2022-09-28T18:32:37.073Z,48.76
2022-09-28T18:37:36.033Z,49.03
2022-09-28T18:42:35.089Z,48.08
2022-09-28T18:47:32.374Z,46.87
2022-09-28T18:52:32.092Z,46.07
2022-09-28T18:57:29.253Z,46.29
2022-09-28T19:02:31.829Z,45.93
2022-09-28T19:07:28.773Z,45.91
2022-09-28T19:12:26.158Z,46.04
2022-09-28T19:17:29.385Z,46.16
2022-09-28T19:22:30.873Z,46.56
2022-09-28T19:27:28.389Z,46.04
2022-09-28T19:32:28.828Z,46.48
2022-09-28T19:37:26.261Z,47.37
2022-09-28T19:42:23.210Z,47.85
2022-09-28T19:47:21.188Z,47.93
2022-09-28T19:52:17.788Z,47.38
2022-09-28T19:57:17.940Z,48.18
2022-09-28T20:02:14.864Z,48.02
2022-09-28T20:07:14.931Z,51.10
2022-09-28T20:12:12.905Z,52.88
2022-09-28T20:17:10.520Z,54.02
2022-09-28T20:22:11.567Z,54.08
2022-09-28T20:27:11.465Z,53.95
2022-09-28T20:32:08.379Z,55.38
2022-09-28T20:37:06.155Z,55.20
2022-09-28T20:42:02.921Z,54.37
2022-09-28T20:46:59.979Z,53.14
2022-09-28T20:52:08.303Z,51.98
2022-09-28T20:57:16.853Z,49.47
2022-09-28T21:02:14.921Z,48.97
2022-09-28T21:07:15.876Z,48.07
2022-09-28T21:12:19.871Z,48.00
2022-09-28T21:17:23.024Z,48.15
2022-09-28T21:22:28.157Z,47.74
2022-09-28T21:27:32.823Z,47.26
2022-09-28T21:32:29.632Z,47.29
2022-09-28T21:37:30.842Z,46.69
2022-09-28T21:42:28.160Z,46.97
2022-09-28T21:47:24.845Z,46.83
2022-09-28T21:52:21.455Z,46.55
2022-09-28T21:57:20.135Z,46.85
2022-09-28T22:02:18.904Z,47.81
2022-09-28T22:07:15.936Z,51.21
2022-09-28T22:12:13.474Z,50.22
2022-09-28T22:17:10.639Z,49.39
2022-09-28T22:22:13.428Z,48.58
2022-09-28T22:27:10.597Z,48.33
2022-09-28T22:32:07.803Z,50.37
2022-09-28T22:37:04.617Z,54.61
2022-09-28T22:42:02.103Z,59.27
2022-09-28T22:47:00.849Z,61.93
2022-09-28T22:51:57.651Z,63.62
2022-09-28T22:56:54.528Z,63.33
2022-09-28T23:01:51.862Z,61.63
2022-09-28T23:06:48.511Z,59.55
2022-09-28T23:11:45.428Z,58.96
2022-09-28T23:16:42.186Z,57.87
2022-09-28T23:21:39.519Z,56.95
2022-09-28T23:26:36.397Z,56.01
2022-09-28T23:31:33.632Z,56.90
2022-09-28T23:36:30.374Z,57.11
2022-09-28T23:41:30.293Z,57.28
2022-09-28T23:46:31.890Z,56.46
2022-09-28T23:51:33.443Z,56.47
2022-09-28T23:56:31.081Z,56.12
